Time;durP1;ratioP1;P1;durP2;ratioP2;P2;SDS_P1;SDS_P2;PMS_P1;PMS_P2;Temp;Humidity;BMP_temperature;BMP_pressure;BME280_temperature;BME280_humidity;BME280_pressure;Samples;Min_cycle;Max_cycle;Signal;HPM_P1;HPM_P2
2021/07/19 00:00:29;;;;;;;13.63;6.65;;;;;;;16.98;89.86;102503.69;5012477;28;20602;-74
2021/07/19 00:02:57;;;;;;;15.25;6.97;;;;;;;16.93;89.65;102519.13;5014539;28;20069;-73
2021/07/19 00:05:27;;;;;;;18.10;7.30;;;;;;;16.86;88.62;102525.66;5011621;28;20053;-74
2021/07/19 00:07:55;;;;;;;13.60;6.90;;;;;;;16.83;88.54;102525.69;5016309;28;20104;-69
2021/07/19 00:10:24;;;;;;;13.88;6.95;;;;;;;16.82;88.10;102513.16;5014710;28;20088;-69
2021/07/19 00:12:53;;;;;;;12.85;6.38;;;;;;;16.78;88.84;102523.16;5013957;28;20389;-69
2021/07/19 00:15:27;;;;;;;11.45;6.38;;;;;;;16.74;89.00;102526.88;5014594;28;20439;-69
2021/07/19 00:17:56;;;;;;;10.77;5.68;;;;;;;16.72;89.62;102523.34;5012438;28;20069;-69
2021/07/19 00:20:25;;;;;;;12.48;6.38;;;;;;;16.72;89.41;102522.44;5015224;28;20061;-69
2021/07/19 00:22:53;;;;;;;14.02;6.60;;;;;;;16.71;89.38;102518.88;5015054;28;20061;-72
2021/07/19 00:25:21;;;;;;;12.65;6.63;;;;;;;16.71;89.66;102518.00;5013993;28;20112;-73
2021/07/19 00:27:55;;;;;;;10.82;6.03;;;;;;;16.72;90.11;102517.06;5012928;28;20095;-73
2021/07/19 00:30:25;;;;;;;13.15;5.70;;;;;;;16.69;90.02;102519.88;5014239;28;20046;-72
2021/07/19 00:32:53;;;;;;;15.13;6.38;;;;;;;16.67;89.95;102519.94;5013445;28;20472;-73
2021/07/19 00:35:21;;;;;;;13.82;6.25;;;;;;;16.66;89.63;102531.63;5012341;28;20056;-72
2021/07/19 00:37:49;;;;;;;13.80;6.07;;;;;;;16.65;90.15;102529.84;5012806;28;20067;-72
2021/07/19 00:40:21;;;;;;;13.27;6.47;;;;;;;16.61;90.09;102517.41;5012669;28;20380;-69
2021/07/19 00:42:48;;;;;;;16.20;7.07;;;;;;;16.60;89.53;102523.72;5011959;28;20330;-73
2021/07/19 00:45:18;;;;;;;13.93;6.53;;;;;;;16.56;89.15;102532.84;5014818;28;20362;-72
2021/07/19 00:47:50;;;;;;;11.25;6.20;;;;;;;16.51;89.46;102537.47;5013023;28;20092;-73
2021/07/19 00:50:19;;;;;;;12.00;5.90;;;;;;;16.48;89.97;102527.69;5010461;28;20065;-72
2021/07/19 00:52:48;;;;;;;11.57;5.82;;;;;;;16.49;89.73;102528.56;5016047;28;20048;-73
2021/07/19 00:55:17;;;;;;;16.70;7.28;;;;;;;16.49;90.16;102531.25;5014798;28;20284;-72
2021/07/19 00:57:48;;;;;;;15.40;7.10;;;;;;;16.47;90.32;102525.03;5015229;28;20062;-73
2021/07/19 01:00:16;;;;;;;13.45;5.80;;;;;;;16.45;89.98;102525.09;5012481;28;20065;-72
2021/07/19 01:02:48;;;;;;;13.88;6.70;;;;;;;16.41;90.58;102531.47;5009860;28;20376;-72
2021/07/19 01:05:17;;;;;;;12.32;6.15;;;;;;;16.37;90.59;102525.28;5013417;28;20087;-73
2021/07/19 01:07:48;;;;;;;13.23;6.40;;;;;;;16.33;90.62;102520.94;5009594;28;20070;-74
2021/07/19 01:10:18;;;;;;;13.65;5.78;;;;;;;16.37;90.39;102521.72;5010265;28;20089;-73
2021/07/19 01:12:48;;;;;;;13.10;6.40;;;;;;;16.32;90.15;102524.56;5014568;28;20061;-74
2021/07/19 01:15:16;;;;;;;13.27;5.53;;;;;;;16.35;90.44;102519.09;5011959;28;20527;-74
2021/07/19 01:17:44;;;;;;;10.85;5.82;;;;;;;16.34;90.60;102524.50;5011262;28;20119;-74
2021/07/19 01:20:13;;;;;;;11.65;5.25;;;;;;;16.31;89.89;102511.13;5010764;28;20065;-74
2021/07/19 01:23:00;;;;;;;11.50;6.28;;;;;;;16.28;90.57;102517.50;5013859;28;20446;-73
2021/07/19 01:25:46;;;;;;;12.13;5.75;;;;;;;16.22;90.06;102520.38;5014186;28;20517;-74
2021/07/19 01:28:31;;;;;;;14.10;6.32;;;;;;;16.22;91.14;102523.94;5008602;28;20473;-70
2021/07/19 01:31:03;;;;;;;11.77;5.47;;;;;;;16.10;90.79;102534.19;5014136;28;20099;-74
2021/07/19 01:33:34;;;;;;;13.35;6.07;;;;;;;16.05;90.84;102532.50;5007757;28;20076;-73
2021/07/19 01:36:02;;;;;;;13.57;6.00;;;;;;;16.08;90.91;102526.16;5012936;28;20062;-73
2021/07/19 01:38:30;;;;;;;10.60;5.35;;;;;;;16.01;90.98;102525.44;5010045;28;20551;-73
2021/07/19 01:40:58;;;;;;;10.63;4.93;;;;;;;15.98;90.77;102530.03;5011385;28;20274;-73
2021/07/19 01:43:28;;;;;;;11.23;5.78;;;;;;;15.98;90.85;102511.19;5009558;28;20416;-73
2021/07/19 01:45:57;;;;;;;13.38;6.03;;;;;;;15.95;91.36;102514.84;5010047;28;20139;-74
2021/07/19 01:48:25;;;;;;;13.20;5.43;;;;;;;15.96;91.32;102515.75;5010690;28;20403;-74
2021/07/19 01:50:53;;;;;;;12.65;6.05;;;;;;;15.95;91.19;102509.44;5011646;28;23778;-74
2021/07/19 01:53:21;;;;;;;16.05;6.70;;;;;;;15.91;91.87;102510.47;5012156;28;20076;-74
2021/07/19 01:55:50;;;;;;;12.98;6.40;;;;;;;15.86;91.60;102502.53;5014637;28;20064;-74
2021/07/19 01:58:18;;;;;;;12.68;5.75;;;;;;;15.86;91.53;102512.41;5011375;28;20457;-74
2021/07/19 02:00:48;;;;;;;12.70;5.72;;;;;;;15.80;91.55;102515.25;5013271;28;20069;-74
2021/07/19 02:03:16;;;;;;;13.48;6.18;;;;;;;15.80;91.67;102521.56;5012889;28;20069;-75
2021/07/19 02:05:45;;;;;;;11.30;5.55;;;;;;;15.78;91.38;102504.56;5010443;28;20173;-74
2021/07/19 02:08:16;;;;;;;13.35;6.13;;;;;;;15.76;91.71;102508.22;5014440;28;20104;-74
2021/07/19 02:10:48;;;;;;;12.68;5.78;;;;;;;15.73;91.36;102497.50;5012683;28;20065;-74
2021/07/19 02:13:16;;;;;;;13.82;5.70;;;;;;;15.75;92.05;102499.25;5012283;28;20107;-74
2021/07/19 02:15:45;;;;;;;16.17;5.90;;;;;;;15.75;91.95;102503.72;5011027;28;20145;-70
2021/07/19 02:18:16;;;;;;;13.43;5.85;;;;;;;15.68;91.85;102503.91;5011260;28;20069;-70
2021/07/19 02:20:45;;;;;;;11.75;6.03;;;;;;;15.69;92.81;102502.06;5011046;28;20457;-70
2021/07/19 02:23:15;;;;;;;12.07;5.97;;;;;;;15.66;92.19;102503.06;5009585;28;20104;-70
2021/07/19 02:25:43;;;;;;;12.88;6.03;;;;;;;15.57;92.21;102510.50;5010905;28;20066;-70
2021/07/19 02:28:12;;;;;;;12.98;6.55;;;;;;;15.54;92.54;102507.88;5012236;28;20406;-70
2021/07/19 02:30:41;;;;;;;14.40;6.00;;;;;;;15.52;92.94;102505.22;5014780;28;20061;-70
2021/07/19 02:33:12;;;;;;;13.05;5.75;;;;;;;15.47;92.96;102516.09;5011983;28;20069;-70
2021/07/19 02:35:42;;;;;;;15.23;6.40;;;;;;;15.50;93.65;102512.44;5012395;28;20123;-70
2021/07/19 02:38:12;;;;;;;14.00;6.32;;;;;;;15.49;93.26;102516.97;5010146;28;20100;-70
2021/07/19 02:40:41;;;;;;;16.58;6.93;;;;;;;15.44;93.63;102513.50;5007648;28;20065;-70
2021/07/19 02:43:11;;;;;;;16.35;6.50;;;;;;;15.42;93.41;102517.16;5005784;28;20074;-70
2021/07/19 02:45:42;;;;;;;14.27;6.60;;;;;;;15.43;93.66;102516.22;5009952;28;20425;-70
2021/07/19 02:48:13;;;;;;;13.45;5.82;;;;;;;15.44;94.32;102515.28;5007792;28;20061;-70
2021/07/19 02:50:43;;;;;;;15.75;7.15;;;;;;;15.40;93.23;102519.88;5012244;28;20061;-70
2021/07/19 02:53:14;;;;;;;12.23;6.47;;;;;;;15.39;93.67;102528.88;5011788;28;20046;-70
2021/07/19 02:55:43;;;;;;;13.95;6.47;;;;;;;15.41;93.98;102520.75;5011027;28;20420;-70
2021/07/19 02:58:14;;;;;;;21.23;7.88;;;;;;;15.38;94.80;102513.66;5006864;28;20068;-70
2021/07/19 03:00:42;;;;;;;17.90;7.03;;;;;;;15.37;95.19;102511.88;5011466;28;20076;-69
2021/07/19 03:03:14;;;;;;;15.27;6.85;;;;;;;15.39;94.60;102509.16;5005722;28;20431;-69
2021/07/19 03:05:45;;;;;;;13.55;6.78;;;;;;;15.37;94.11;102519.06;5011549;28;20053;-69
2021/07/19 03:08:14;;;;;;;16.40;7.10;;;;;;;15.31;94.18;102518.31;5009012;28;20093;-69
2021/07/19 03:10:44;;;;;;;14.75;7.30;;;;;;;15.28;94.18;102515.69;5009669;28;20069;-69
2021/07/19 03:13:16;;;;;;;16.10;6.70;;;;;;;15.28;94.14;102523.75;5009214;28;20171;-69
2021/07/19 03:15:46;;;;;;;14.20;6.28;;;;;;;15.25;94.15;102529.19;5010093;28;20069;-69
2021/07/19 03:18:14;;;;;;;14.65;6.95;;;;;;;15.20;94.42;102527.56;5010221;28;20053;-69
2021/07/19 03:20:44;;;;;;;19.95;6.93;;;;;;;15.13;94.76;102525.00;5011287;28;20100;-69
2021/07/19 03:23:15;;;;;;;14.43;6.65;;;;;;;15.13;95.23;102529.50;5006167;28;20073;-69
2021/07/19 03:25:44;;;;;;;15.02;6.43;;;;;;;15.10;94.73;102527.78;5009179;28;20156;-69
2021/07/19 03:28:13;;;;;;;13.25;6.32;;;;;;;15.13;94.83;102521.44;5007951;28;20065;-69
2021/07/19 03:30:43;;;;;;;15.80;6.25;;;;;;;15.12;95.50;102523.25;5008283;28;20151;-69
2021/07/19 03:33:11;;;;;;;11.27;6.32;;;;;;;15.15;94.84;102526.78;5012062;28;20124;-69
2021/07/19 03:35:39;;;;;;;14.20;6.90;;;;;;;15.17;95.34;102539.28;5012111;28;20427;-69
2021/07/19 03:38:10;;;;;;;14.85;7.13;;;;;;;15.20;94.95;102532.94;5008952;28;20069;-69
2021/07/19 03:40:37;;;;;;;12.98;6.38;;;;;;;15.20;95.50;102530.25;5014034;28;20112;-71
2021/07/19 03:43:05;;;;;;;13.93;6.75;;;;;;;15.21;95.35;102535.59;5009895;28;20064;-71
2021/07/19 03:45:34;;;;;;;15.68;6.35;;;;;;;15.21;95.01;102532.03;5010201;28;20066;-71
2021/07/19 03:48:03;;;;;;;15.55;6.40;;;;;;;15.23;95.17;102533.75;5009402;28;20416;-71
2021/07/19 03:50:36;;;;;;;17.92;6.70;;;;;;;15.24;95.05;102535.53;5013274;28;20075;-71
2021/07/19 03:53:06;;;;;;;17.17;6.57;;;;;;;15.22;95.17;102528.41;5010596;28;20442;-71
2021/07/19 03:55:36;;;;;;;12.00;5.78;;;;;;;15.25;95.33;102536.41;5010784;28;20174;-71
2021/07/19 03:58:04;;;;;;;14.40;6.88;;;;;;;15.24;94.98;102527.44;5010701;28;20395;-70
2021/07/19 04:00:32;;;;;;;13.30;7.28;;;;;;;15.26;94.94;102527.41;5010290;28;20101;-70
2021/07/19 04:03:05;;;;;;;15.70;6.35;;;;;;;15.28;94.79;102529.13;5011749;28;20089;-78
2021/07/19 04:05:40;;;;;;;13.27;6.63;;;;;;;15.33;94.71;102531.72;5013762;28;20061;-78
2021/07/19 04:08:09;;;;;;;16.05;6.13;;;;;;;15.36;95.14;102525.34;5012639;28;20080;-75
2021/07/19 04:10:40;;;;;;;13.63;6.07;;;;;;;15.40;95.09;102524.38;5009750;28;20065;-76
2021/07/19 04:13:08;;;;;;;15.10;7.18;;;;;;;15.46;94.98;102521.50;5010187;28;20404;-76
2021/07/19 04:15:39;;;;;;;12.95;5.90;;;;;;;15.48;94.42;102522.38;5011889;28;20066;-78
2021/07/19 04:18:07;;;;;;;16.65;6.57;;;;;;;15.48;94.45;102527.75;5010012;28;20068;-77
2021/07/19 04:20:35;;;;;;;16.30;7.28;;;;;;;15.50;94.12;102525.91;5013546;28;20441;-72
2021/07/19 04:23:03;;;;;;;15.43;6.57;;;;;;;15.52;94.23;102518.66;5011025;28;20148;-72
2021/07/19 04:25:31;;;;;;;11.82;5.55;;;;;;;15.56;94.07;102517.69;5013008;28;20093;-72
2021/07/19 04:28:00;;;;;;;16.38;6.72;;;;;;;15.59;94.15;102504.13;5011469;28;20452;-72
2021/07/19 04:30:33;;;;;;;15.07;6.78;;;;;;;15.65;94.27;102512.03;5012082;28;20450;-74
2021/07/19 04:33:01;;;;;;;17.08;7.10;;;;;;;15.72;94.15;102507.38;5015326;28;20065;-73
2021/07/19 04:35:29;;;;;;;14.95;6.70;;;;;;;15.76;93.79;102505.53;5013730;28;20148;-72
2021/07/19 04:37:58;;;;;;;14.48;6.90;;;;;;;15.82;93.57;102506.22;5012450;28;20190;-72
2021/07/19 04:40:27;;;;;;;16.42;7.45;;;;;;;15.86;93.83;102512.41;5012493;28;20507;-72
2021/07/19 04:42:56;;;;;;;16.48;6.15;;;;;;;15.84;93.39;102523.22;5013902;28;21347;-72
2021/07/19 04:45:25;;;;;;;13.30;6.63;;;;;;;15.87;93.44;102516.88;5011116;28;20054;-72
2021/07/19 04:47:53;;;;;;;16.63;6.78;;;;;;;15.93;93.60;102518.50;5013355;28;20155;-72
2021/07/19 04:50:20;;;;;;;17.48;6.78;;;;;;;15.95;93.35;102522.91;5009680;28;20472;-72
2021/07/19 04:52:48;;;;;;;13.73;6.15;;;;;;;15.98;93.36;102517.44;5013301;28;20053;-72
2021/07/19 04:55:20;;;;;;;14.57;6.78;;;;;;;16.04;93.14;102514.59;5013998;28;20097;-72
2021/07/19 04:57:52;;;;;;;16.00;7.10;;;;;;;16.12;93.30;102505.41;5013968;28;20068;-72
2021/07/19 05:00:20;;;;;;;15.02;7.13;;;;;;;16.13;92.89;102504.50;5012040;28;20071;-72
2021/07/19 05:02:51;;;;;;;15.00;7.28;;;;;;;16.16;92.21;102510.66;5009377;28;20478;-72
2021/07/19 05:05:21;;;;;;;16.90;7.60;;;;;;;16.21;92.28;102511.41;5013856;28;20064;-72
2021/07/19 05:07:51;;;;;;;15.88;6.63;;;;;;;16.29;91.76;102516.56;5010408;28;20061;-72
2021/07/19 05:10:20;;;;;;;15.40;6.72;;;;;;;16.32;91.59;102510.22;5012948;28;20139;-72
2021/07/19 05:12:51;;;;;;;14.82;6.75;;;;;;;16.38;91.33;102513.59;5012201;28;20140;-72
2021/07/19 05:15:20;;;;;;;19.45;7.30;;;;;;;16.57;90.89;102513.94;5009439;28;20153;-72
2021/07/19 05:17:50;;;;;;;17.38;7.70;;;;;;;16.71;89.96;102518.00;5015063;28;20431;-72
2021/07/19 05:20:21;;;;;;;17.60;7.13;;;;;;;16.98;88.70;102516.28;5014945;28;21109;-72
2021/07/19 05:22:51;;;;;;;15.50;7.47;;;;;;;17.33;87.34;102507.03;5014247;28;20130;-72
2021/07/19 05:25:24;;;;;;;16.60;7.13;;;;;;;17.65;86.25;102509.53;5014156;28;20755;-72
2021/07/19 05:28:08;;;;;;;19.08;8.60;;;;;;;17.89;84.01;102510.50;5011895;28;20066;-72
2021/07/19 05:30:42;;;;;;;17.15;8.52;;;;;;;18.22;83.63;102499.38;5013793;28;20415;-72
2021/07/19 05:33:13;;;;;;;15.13;7.15;;;;;;;18.37;81.90;102498.81;5009544;28;20050;-72
2021/07/19 05:35:41;;;;;;;14.93;6.93;;;;;;;18.56;82.00;102504.38;5010667;28;20172;-72
2021/07/19 05:38:09;;;;;;;13.90;6.47;;;;;;;18.35;80.25;102499.78;5011573;28;20069;-72
2021/07/19 05:40:37;;;;;;;15.80;6.90;;;;;;;18.06;81.51;102501.75;5010130;28;20417;-73
2021/07/19 05:43:05;;;;;;;17.00;6.80;;;;;;;17.84;81.82;102501.63;5019058;28;20193;-73
2021/07/19 05:45:33;;;;;;;15.50;6.72;;;;;;;17.69;82.40;102494.97;5013426;28;20061;-73
2021/07/19 05:48:01;;;;;;;12.30;6.13;;;;;;;17.58;83.07;102500.75;5010443;28;20389;-72
2021/07/19 05:50:31;;;;;;;13.07;6.18;;;;;;;17.55;82.77;102506.25;5015827;28;20103;-72
2021/07/19 05:52:59;;;;;;;14.27;6.22;;;;;;;17.46;82.63;102512.88;5011277;28;20077;-73
2021/07/19 05:55:27;;;;;;;16.10;7.43;;;;;;;17.44;82.55;102513.88;5015838;28;20065;-72
2021/07/19 05:57:58;;;;;;;15.90;5.95;;;;;;;17.42;83.05;102513.91;5010239;28;20065;-72
2021/07/19 06:00:27;;;;;;;14.38;6.75;;;;;;;17.37;83.00;102505.09;5015480;28;21015;-72
2021/07/19 06:02:54;;;;;;;14.65;6.88;;;;;;;17.95;81.05;102504.00;5007521;28;20053;-72
2021/07/19 06:05:23;;;;;;;14.10;6.55;;;;;;;18.20;80.13;102498.53;5014557;28;20071;-72
2021/07/19 06:07:52;;;;;;;17.00;6.25;;;;;;;18.19;79.56;102502.19;5011635;28;20140;-73
2021/07/19 06:10:19;;;;;;;20.10;7.28;;;;;;;18.01;79.94;102510.03;5011295;28;20065;-72
2021/07/19 06:12:47;;;;;;;15.45;7.10;;;;;;;18.35;79.16;102495.25;5017201;28;20052;-72
2021/07/19 06:15:15;;;;;;;15.02;6.72;;;;;;;18.68;78.01;102497.59;5009722;28;20113;-72
2021/07/19 06:17:43;;;;;;;15.98;7.35;;;;;;;18.31;79.80;102501.72;5010738;28;20061;-72
2021/07/19 06:20:13;;;;;;;17.33;7.20;;;;;;;18.09;79.13;102502.53;5012651;28;20061;-72
2021/07/19 06:22:42;;;;;;;15.95;7.60;;;;;;;18.05;79.28;102498.19;5013044;28;20485;-77
2021/07/19 06:25:13;;;;;;;15.88;7.10;;;;;;;18.01;79.65;102506.47;5013247;28;20549;-76
2021/07/19 06:27:41;;;;;;;15.60;6.78;;;;;;;18.09;79.69;102517.88;5010694;28;20061;-78
2021/07/19 06:30:12;;;;;;;17.40;7.45;;;;;;;18.03;79.36;102516.28;5010402;28;20071;-76
2021/07/19 06:32:40;;;;;;;17.10;7.53;;;;;;;18.63;77.29;102516.69;5011691;28;20157;-75
2021/07/19 06:35:09;;;;;;;17.00;6.60;;;;;;;18.69;76.43;102518.25;5007567;28;20068;-75
2021/07/19 06:37:36;;;;;;;16.95;8.30;;;;;;;18.53;76.62;102515.28;5011588;28;20871;-76
2021/07/19 06:40:06;;;;;;;15.75;6.82;;;;;;;19.11;75.99;102516.63;5014200;28;20053;-75
2021/07/19 06:42:35;;;;;;;17.08;7.55;;;;;;;19.38;74.48;102523.56;5014218;28;20076;-76
2021/07/19 06:45:06;;;;;;;13.10;6.32;;;;;;;19.55;73.93;102530.09;5010769;28;20116;-76
2021/07/19 06:47:34;;;;;;;14.98;7.30;;;;;;;19.91;72.63;102527.63;5007592;28;20045;-76
2021/07/19 06:50:05;;;;;;;15.93;6.80;;;;;;;19.97;71.99;102526.44;5014490;28;20066;-75
2021/07/19 06:52:33;;;;;;;19.42;7.57;;;;;;;19.86;71.64;102518.81;5009491;28;23976;-76
2021/07/19 06:55:01;;;;;;;16.50;7.30;;;;;;;19.74;71.45;102527.47;5010898;28;20065;-75
2021/07/19 06:57:28;;;;;;;13.77;6.22;;;;;;;20.20;70.10;102521.84;5009647;28;20387;-75
2021/07/19 06:59:57;;;;;;;16.35;6.93;;;;;;;20.43;69.57;102528.88;5014473;28;20061;-75
2021/07/19 07:02:25;;;;;;;12.80;6.10;;;;;;;20.77;68.26;102527.28;5010377;28;20104;-75
2021/07/19 07:04:53;;;;;;;14.40;6.60;;;;;;;21.14;66.93;102525.50;5012412;28;20066;-75
2021/07/19 07:07:21;;;;;;;14.52;6.75;;;;;;;21.13;66.51;102531.88;5015470;28;20061;-75
2021/07/19 07:09:49;;;;;;;10.90;6.10;;;;;;;20.86;64.05;102530.44;5011694;28;20341;-75
2021/07/19 07:12:20;;;;;;;13.48;7.22;;;;;;;21.06;64.23;102523.16;5007727;28;20165;-75
2021/07/19 07:14:48;;;;;;;13.38;6.40;;;;;;;20.82;63.95;102526.13;5014649;28;20057;-76
2021/07/19 07:17:17;;;;;;;15.98;7.20;;;;;;;21.34;64.56;102522.63;5013487;28;20065;-76
2021/07/19 07:19:51;;;;;;;12.88;6.53;;;;;;;21.19;64.16;102518.88;5015578;28;20105;-76
2021/07/19 07:22:19;;;;;;;16.67;7.03;;;;;;;21.36;64.81;102520.72;5011658;28;20073;-77
2021/07/19 07:24:47;;;;;;;18.98;7.70;;;;;;;21.00;65.42;102509.91;5012845;28;20057;-77
2021/07/19 07:27:17;;;;;;;16.83;7.03;;;;;;;20.60;66.09;102514.53;5011798;28;20072;-72
2021/07/19 07:29:45;;;;;;;14.38;6.07;;;;;;;20.48;65.49;102513.28;5010839;28;20172;-72
2021/07/19 07:32:13;;;;;;;12.93;6.32;;;;;;;20.48;65.12;102505.13;5011905;28;20463;-71
2021/07/19 07:34:43;;;;;;;13.50;5.82;;;;;;;20.48;64.85;102510.56;5010492;28;20089;-72
2021/07/19 07:37:12;;;;;;;13.25;6.07;;;;;;;20.23;65.22;102511.72;5008553;28;20112;-76
2021/07/19 07:39:41;;;;;;;13.23;6.00;;;;;;;20.03;65.46;102518.06;5012410;28;20432;-77
2021/07/19 07:42:09;;;;;;;13.15;5.22;;;;;;;20.01;66.30;102527.22;5012552;28;20376;-77
2021/07/19 07:44:41;;;;;;;12.43;5.97;;;;;;;20.02;66.76;102524.41;5009685;28;20333;-77
2021/07/19 07:47:09;;;;;;;14.63;6.32;;;;;;;20.20;65.83;102521.84;5009757;28;20061;-76
2021/07/19 07:49:40;;;;;;;11.52;5.38;;;;;;;20.24;65.32;102510.75;5008527;28;20519;-73
2021/07/19 07:52:10;;;;;;;12.20;5.78;;;;;;;20.47;63.59;102517.81;5018271;28;20057;-73
2021/07/19 07:54:39;;;;;;;12.70;5.75;;;;;;;20.65;64.33;102517.91;5013442;28;20069;-73
2021/07/19 07:57:08;;;;;;;14.48;5.50;;;;;;;20.71;62.78;102514.94;5014300;28;20339;-72
2021/07/19 07:59:36;;;;;;;9.82;5.43;;;;;;;20.77;63.16;102513.75;5013527;28;20535;-72
2021/07/19 08:02:05;;;;;;;12.88;5.80;;;;;;;20.97;62.84;102515.47;5011863;28;20065;-73
2021/07/19 08:04:36;;;;;;;11.38;5.38;;;;;;;21.27;60.09;102523.91;5013853;28;20108;-77
2021/07/19 08:07:06;;;;;;;11.35;5.55;;;;;;;21.49;59.90;102514.69;5012203;28;20092;-77
2021/07/19 08:09:35;;;;;;;10.13;5.07;;;;;;;21.41;59.16;102517.78;5015332;28;20501;-75
2021/07/19 08:12:04;;;;;;;10.20;4.95;;;;;;;21.48;59.28;102518.38;5013684;28;20337;-75
2021/07/19 08:14:32;;;;;;;10.35;4.38;;;;;;;21.33;57.64;102523.59;5016200;28;20143;-76
2021/07/19 08:17:00;;;;;;;11.55;4.85;;;;;;;21.30;57.67;102521.06;5012576;28;20042;-76
2021/07/19 08:19:32;;;;;;;9.57;5.00;;;;;;;21.16;59.08;102521.72;5013539;28;20101;-76
2021/07/19 08:22:01;;;;;;;9.07;4.60;;;;;;;21.40;57.79;102525.06;5016193;28;20463;-76
2021/07/19 08:24:31;;;;;;;9.32;4.15;;;;;;;22.29;56.66;102526.78;5015201;28;20689;-76
2021/07/19 08:27:00;;;;;;;12.32;5.47;;;;;;;21.87;57.70;102522.69;5010228;28;20153;-76
2021/07/19 08:29:28;;;;;;;9.32;4.80;;;;;;;21.62;58.19;102516.72;5015866;28;20456;-76
2021/07/19 08:31:59;;;;;;;8.80;4.63;;;;;;;21.89;57.24;102518.91;5015095;28;20341;-76
2021/07/19 08:34:28;;;;;;;9.45;4.35;;;;;;;22.23;56.98;102511.63;5014032;28;20708;-75
2021/07/19 08:36:56;;;;;;;11.30;5.00;;;;;;;22.05;56.86;102509.91;5013254;28;20066;-76
2021/07/19 08:39:24;;;;;;;11.32;4.97;;;;;;;22.38;56.52;102499.06;5013855;28;20061;-76
2021/07/19 08:41:55;;;;;;;9.60;5.00;;;;;;;22.31;56.15;102509.41;5013281;28;20049;-76
2021/07/19 08:44:29;;;;;;;11.88;4.97;;;;;;;22.61;56.41;102508.66;5011648;28;20519;-76
2021/07/19 08:46:56;;;;;;;13.25;5.60;;;;;;;22.90;54.92;102506.97;5014079;28;20108;-76
2021/07/19 08:49:24;;;;;;;14.05;6.28;;;;;;;23.12;55.22;102511.19;5012268;28;20075;-75
2021/07/19 08:51:52;;;;;;;11.60;6.38;;;;;;;22.60;55.81;102509.63;5014016;28;20065;-72
2021/07/19 08:54:21;;;;;;;12.95;6.38;;;;;;;22.55;56.01;102512.59;5012455;28;20066;-71
2021/07/19 08:56:49;;;;;;;14.93;6.68;;;;;;;22.84;55.70;102509.19;5014425;28;20089;-76
2021/07/19 08:59:37;;;;;;;11.57;6.05;;;;;;;23.37;54.76;102523.34;5019900;28;20089;-75
2021/07/19 09:02:06;;;;;;;13.38;6.30;;;;;;;23.83;53.77;102516.00;5011792;28;20137;-74
2021/07/19 09:04:37;;;;;;;13.05;6.40;;;;;;;24.02;52.89;102507.56;5012895;28;20168;-74
2021/07/19 09:07:05;;;;;;;11.48;5.88;;;;;;;24.62;51.75;102505.63;5012819;28;20440;-75
2021/07/19 09:09:36;;;;;;;12.80;6.07;;;;;;;24.98;50.70;102501.41;5012344;28;20089;-75
2021/07/19 09:12:05;;;;;;;12.90;6.88;;;;;;;25.13;50.92;102496.75;5013290;28;20065;-74
2021/07/19 09:14:33;;;;;;;13.90;6.72;;;;;;;24.95;50.46;102507.06;5017268;28;20106;-76
2021/07/19 09:17:03;;;;;;;13.65;6.57;;;;;;;24.51;51.66;102506.25;5010868;28;20523;-77
2021/07/19 09:19:31;;;;;;;12.80;6.80;;;;;;;24.95;51.15;102507.06;5013668;28;20097;-77
2021/07/19 09:22:02;;;;;;;14.48;7.38;;;;;;;24.26;52.16;102498.78;5009393;28;20786;-77
2021/07/19 09:24:33;;;;;;;14.45;7.38;;;;;;;24.40;51.56;102497.91;5011576;28;20177;-77
2021/07/19 09:27:01;;;;;;;17.35;8.35;;;;;;;23.74;53.69;102504.78;5012118;28;20084;-77
2021/07/19 09:29:38;;;;;;;12.45;7.00;;;;;;;23.73;54.62;102500.28;5016138;28;20068;-77
2021/07/19 09:32:11;;;;;;;13.68;6.82;;;;;;;23.39;54.47;102503.22;5008840;28;20050;-77
2021/07/19 09:34:41;;;;;;;14.07;7.15;;;;;;;23.37;55.25;102502.44;5010082;28;20050;-77
2021/07/19 09:37:10;;;;;;;14.27;7.05;;;;;;;23.39;55.40;102500.50;5014975;28;20057;-77
2021/07/19 09:39:44;;;;;;;16.30;7.25;;;;;;;23.11;55.74;102499.44;5010199;28;20414;-70
2021/07/19 09:42:19;;;;;;;12.43;6.78;;;;;;;23.34;55.17;102494.44;5009545;28;20093;-71
2021/07/19 09:44:52;;;;;;;16.23;6.85;;;;;;;23.48;54.35;102499.94;5011076;28;20097;-71
2021/07/19 09:47:33;;;;;;;13.13;7.43;;;;;;;23.35;55.16;102496.22;5010053;28;20321;-71
2021/07/19 09:50:02;;;;;;;13.30;7.32;;;;;;;23.11;55.96;102493.13;5012443;28;20352;-71
2021/07/19 09:52:33;;;;;;;16.98;8.32;;;;;;;22.96;56.10;102496.72;5011592;28;20061;-71
2021/07/19 09:55:01;;;;;;;15.27;7.60;;;;;;;23.45;56.46;102491.09;5011956;28;20063;-71
2021/07/19 09:57:29;;;;;;;15.77;7.22;;;;;;;23.78;54.26;102488.13;5008582;28;20085;-71
2021/07/19 09:59:58;;;;;;;18.55;7.30;;;;;;;23.85;54.00;102491.38;5010055;28;20062;-77
2021/07/19 10:02:36;;;;;;;16.00;7.68;;;;;;;23.84;54.26;102490.50;5011543;28;20261;-71
2021/07/19 10:05:06;;;;;;;16.13;7.63;;;;;;;23.75;54.84;102488.34;5011463;28;20334;-71
2021/07/19 10:07:35;;;;;;;14.23;7.38;;;;;;;23.56;53.58;102484.97;5013134;28;20504;-71
2021/07/19 10:10:08;;;;;;;14.02;7.05;;;;;;;23.98;53.60;102477.88;5012616;28;20126;-71
2021/07/19 10:12:35;;;;;;;15.45;7.97;;;;;;;23.30;54.19;102491.03;5010413;28;20092;-71
2021/07/19 10:15:06;;;;;;;14.57;7.07;;;;;;;23.49;54.96;102485.34;5011500;28;20343;-71
2021/07/19 10:17:54;;;;;;;12.55;6.28;;;;;;;23.93;54.27;102477.28;5008675;28;20496;-72
2021/07/19 10:20:22;;;;;;;14.15;6.93;;;;;;;23.79;53.88;102470.81;5014729;28;20073;-71
2021/07/19 10:22:50;;;;;;;14.90;7.18;;;;;;;24.09;54.14;102463.53;5010206;28;20046;-72
2021/07/19 10:25:18;;;;;;;13.23;6.90;;;;;;;24.76;51.57;102469.22;5012428;28;20111;-70
2021/07/19 10:27:47;;;;;;;15.30;7.22;;;;;;;24.27;52.35;102467.81;5010845;28;20092;-70
2021/07/19 10:30:15;;;;;;;15.77;7.40;;;;;;;24.39;51.98;102458.81;5008590;28;20322;-71
2021/07/19 10:32:43;;;;;;;12.45;7.70;;;;;;;24.56;50.36;102455.03;5014921;28;20062;-71
2021/07/19 10:35:13;;;;;;;12.65;6.88;;;;;;;25.16;49.26;102471.97;5013443;28;20545;-71
2021/07/19 10:37:49;;;;;;;13.13;7.07;;;;;;;25.28;48.44;102457.47;5012236;28;20045;-71
2021/07/19 10:40:21;;;;;;;12.25;6.82;;;;;;;25.91;48.53;102461.28;5009985;28;20072;-70
2021/07/19 10:42:51;;;;;;;13.40;7.38;;;;;;;25.41;48.18;102459.38;5008254;28;20123;-72
2021/07/19 10:45:23;;;;;;;13.93;7.53;;;;;;;24.74;50.04;102466.59;5012697;28;20061;-71
2021/07/19 10:47:56;;;;;;;14.80;7.75;;;;;;;24.75;50.44;102464.72;5007488;28;20084;-71
2021/07/19 10:50:30;;;;;;;12.95;7.15;;;;;;;25.26;49.68;102450.41;5010697;28;20472;-71
2021/07/19 10:53:02;;;;;;;14.75;7.03;;;;;;;25.15;49.15;102462.91;5012718;28;20348;-73
2021/07/19 10:55:34;;;;;;;12.43;6.72;;;;;;;25.39;48.48;102455.84;5010660;28;20249;-72
2021/07/19 10:58:09;;;;;;;14.82;8.05;;;;;;;24.97;48.73;102454.09;5012247;28;20380;-73
2021/07/19 11:00:40;;;;;;;13.52;7.60;;;;;;;25.45;47.61;102449.97;5008611;28;20448;-73
2021/07/19 11:03:12;;;;;;;15.27;7.38;;;;;;;25.16;48.17;102444.66;5011535;28;20454;-73
2021/07/19 11:05:43;;;;;;;11.77;7.07;;;;;;;25.59;48.01;102452.63;5008745;28;20061;-73
2021/07/19 11:08:21;;;;;;;17.58;8.70;;;;;;;25.52;48.27;102434.91;5010568;28;20371;-73
2021/07/19 11:10:48;;;;;;;14.95;8.38;;;;;;;25.70;47.44;102438.19;5011776;28;20061;-72
2021/07/19 11:13:37;;;;;;;14.55;7.40;;;;;;;25.33;49.07;102441.66;5008572;28;20065;-72
2021/07/19 11:16:14;;;;;;;16.08;8.10;;;;;;;25.08;48.15;102437.00;5012350;28;20144;-72
2021/07/19 11:18:53;;;;;;;13.60;7.63;;;;;;;24.71;48.81;102434.03;5008595;28;20135;-71
2021/07/19 11:21:24;;;;;;;13.63;7.18;;;;;;;24.98;48.79;102436.75;5010269;28;20478;-72
2021/07/19 11:23:53;;;;;;;16.38;8.38;;;;;;;24.23;51.46;102436.28;5013106;28;20065;-73
2021/07/19 11:26:24;;;;;;;16.45;8.52;;;;;;;24.60;50.66;102436.59;5012701;28;20067;-72
2021/07/19 11:28:57;;;;;;;14.18;8.10;;;;;;;24.52;50.72;102434.34;5016888;28;20372;-72